sensor_id;sensor_type;location;lat;lon;timestamp;temperature;humidity
18777;DHT22;9517;51.174;4.160;2023-04-06T00:01:10;9.90;99.90
18777;DHT22;9517;51.174;4.160;2023-04-06T00:03:37;9.90;99.90
18777;DHT22;9517;51.174;4.160;2023-04-06T00:06:05;9.90;99.90
18777;DHT22;9517;51.174;4.160;2023-04-06T00:08:32;9.90;99.90
18777;DHT22;9517;51.174;4.160;2023-04-06T00:10:59;9.90;99.90
18777;DHT22;9517;51.174;4.160;2023-04-06T00:13:28;9.90;99.90
18777;DHT22;9517;51.174;4.160;2023-04-06T00:15:55;10.00;99.90
18777;DHT22;9517;51.174;4.160;2023-04-06T00:18:23;9.90;99.90
18777;DHT22;9517;51.174;4.160;2023-04-06T00:20:50;9.80;99.90
18777;DHT22;9517;51.174;4.160;2023-04-06T00:23:17;9.70;99.90
18777;DHT22;9517;51.174;4.160;2023-04-06T00:25:45;9.60;99.90
18777;DHT22;9517;51.174;4.160;2023-04-06T00:28:12;9.60;99.90
18777;DHT22;9517;51.174;4.160;2023-04-06T00:30:40;9.70;99.90
18777;DHT22;9517;51.174;4.160;2023-04-06T00:33:07;9.60;99.90
18777;DHT22;9517;51.174;4.160;2023-04-06T00:35:35;9.60;99.90
18777;DHT22;9517;51.174;4.160;2023-04-06T00:38:02;9.60;99.90
18777;DHT22;9517;51.174;4.160;2023-04-06T00:40:29;9.60;99.90
18777;DHT22;9517;51.174;4.160;2023-04-06T00:42:56;9.50;99.90
18777;DHT22;9517;51.174;4.160;2023-04-06T00:45:23;9.60;99.90
18777;DHT22;9517;51.174;4.160;2023-04-06T00:47:52;9.60;99.90
18777;DHT22;9517;51.174;4.160;2023-04-06T00:50:19;9.50;99.90
18777;DHT22;9517;51.174;4.160;2023-04-06T00:52:46;9.50;99.90
18777;DHT22;9517;51.174;4.160;2023-04-06T00:55:13;9.50;99.90
18777;DHT22;9517;51.174;4.160;2023-04-06T00:57:40;9.40;99.90
18777;DHT22;9517;51.174;4.160;2023-04-06T01:00:08;9.30;99.90
18777;DHT22;9517;51.174;4.160;2023-04-06T01:02:38;9.30;99.90
18777;DHT22;9517;51.174;4.160;2023-04-06T01:05:07;9.20;99.90
18777;DHT22;9517;51.174;4.160;2023-04-06T01:07:34;9.20;99.90
18777;DHT22;9517;51.174;4.160;2023-04-06T01:10:02;9.10;99.90
18777;DHT22;9517;51.174;4.160;2023-04-06T01:12:29;9.10;99.90
18777;DHT22;9517;51.174;4.160;2023-04-06T01:14:56;9.20;99.90
18777;DHT22;9517;51.174;4.160;2023-04-06T01:17:23;9.20;99.90
18777;DHT22;9517;51.174;4.160;2023-04-06T01:19:50;9.10;99.90
18777;DHT22;9517;51.174;4.160;2023-04-06T01:22:20;9.20;99.90
18777;DHT22;9517;51.174;4.160;2023-04-06T01:24:47;9.10;99.90
18777;DHT22;9517;51.174;4.160;2023-04-06T01:27:15;9.10;99.90
18777;DHT22;9517;51.174;4.160;2023-04-06T01:29:42;9.00;99.90
18777;DHT22;9517;51.174;4.160;2023-04-06T01:32:09;9.10;99.90
18777;DHT22;9517;51.174;4.160;2023-04-06T01:34:36;9.10;99.90
18777;DHT22;9517;51.174;4.160;2023-04-06T01:37:03;9.00;99.90
18777;DHT22;9517;51.174;4.160;2023-04-06T01:39:32;9.00;99.90
18777;DHT22;9517;51.174;4.160;2023-04-06T01:41:59;8.90;99.90
18777;DHT22;9517;51.174;4.160;2023-04-06T01:44:26;8.90;99.90
18777;DHT22;9517;51.174;4.160;2023-04-06T01:46:55;8.90;99.90
18777;DHT22;9517;51.174;4.160;2023-04-06T01:49:23;8.80;99.90
18777;DHT22;9517;51.174;4.160;2023-04-06T01:51:50;8.90;99.90
18777;DHT22;9517;51.174;4.160;2023-04-06T01:54:18;8.80;99.90
18777;DHT22;9517;51.174;4.160;2023-04-06T01:56:46;8.90;99.90
18777;DHT22;9517;51.174;4.160;2023-04-06T01:59:15;8.90;99.90
18777;DHT22;9517;51.174;4.160;2023-04-06T02:01:43;8.80;99.90
18777;DHT22;9517;51.174;4.160;2023-04-06T02:04:10;8.80;99.90
18777;DHT22;9517;51.174;4.160;2023-04-06T02:06:39;8.70;99.90
18777;DHT22;9517;51.174;4.160;2023-04-06T02:09:06;8.60;99.90
18777;DHT22;9517;51.174;4.160;2023-04-06T02:11:33;8.60;99.90
18777;DHT22;9517;51.174;4.160;2023-04-06T02:14:02;8.60;99.90
18777;DHT22;9517;51.174;4.160;2023-04-06T02:16:29;8.60;99.90
18777;DHT22;9517;51.174;4.160;2023-04-06T02:18:56;8.50;99.90
18777;DHT22;9517;51.174;4.160;2023-04-06T02:21:24;8.60;99.90
18777;DHT22;9517;51.174;4.160;2023-04-06T02:23:51;8.60;99.90
18777;DHT22;9517;51.174;4.160;2023-04-06T02:26:18;8.50;99.90
18777;DHT22;9517;51.174;4.160;2023-04-06T02:28:45;8.50;99.90
18777;DHT22;9517;51.174;4.160;2023-04-06T02:31:14;8.50;99.90
18777;DHT22;9517;51.174;4.160;2023-04-06T02:33:41;8.50;99.90
18777;DHT22;9517;51.174;4.160;2023-04-06T02:36:08;8.50;99.90
18777;DHT22;9517;51.174;4.160;2023-04-06T02:38:35;8.40;99.90
18777;DHT22;9517;51.174;4.160;2023-04-06T02:41:03;8.50;99.90
18777;DHT22;9517;51.174;4.160;2023-04-06T02:43:30;8.60;99.90
18777;DHT22;9517;51.174;4.160;2023-04-06T02:45:57;8.60;99.90
18777;DHT22;9517;51.174;4.160;2023-04-06T02:48:25;8.50;99.90
18777;DHT22;9517;51.174;4.160;2023-04-06T02:50:53;8.60;99.90
18777;DHT22;9517;51.174;4.160;2023-04-06T02:53:20;8.40;99.90
18777;DHT22;9517;51.174;4.160;2023-04-06T02:55:47;8.40;99.90
18777;DHT22;9517;51.174;4.160;2023-04-06T02:58:14;8.40;99.90
18777;DHT22;9517;51.174;4.160;2023-04-06T03:00:41;8.40;99.90
18777;DHT22;9517;51.174;4.160;2023-04-06T03:03:08;8.50;99.90
18777;DHT22;9517;51.174;4.160;2023-04-06T03:05:37;8.50;99.90
18777;DHT22;9517;51.174;4.160;2023-04-06T03:08:04;8.50;99.90
18777;DHT22;9517;51.174;4.160;2023-04-06T03:10:31;8.40;99.90
18777;DHT22;9517;51.174;4.160;2023-04-06T03:12:58;8.50;99.90
18777;DHT22;9517;51.174;4.160;2023-04-06T03:15:25;8.40;99.90
18777;DHT22;9517;51.174;4.160;2023-04-06T03:17:52;8.50;99.90
18777;DHT22;9517;51.174;4.160;2023-04-06T03:20:19;8.50;99.90
18777;DHT22;9517;51.174;4.160;2023-04-06T03:22:48;8.50;99.90
18777;DHT22;9517;51.174;4.160;2023-04-06T03:25:15;8.50;99.90
18777;DHT22;9517;51.174;4.160;2023-04-06T03:27:42;8.50;99.90
18777;DHT22;9517;51.174;4.160;2023-04-06T03:30:10;8.50;99.90
18777;DHT22;9517;51.174;4.160;2023-04-06T03:32:37;8.50;99.90
18777;DHT22;9517;51.174;4.160;2023-04-06T03:35:05;8.50;99.90
18777;DHT22;9517;51.174;4.160;2023-04-06T03:37:32;8.40;99.90
18777;DHT22;9517;51.174;4.160;2023-04-06T03:40:01;8.40;99.90
18777;DHT22;9517;51.174;4.160;2023-04-06T03:42:29;8.40;99.90
18777;DHT22;9517;51.174;4.160;2023-04-06T03:44:56;8.40;99.90
18777;DHT22;9517;51.174;4.160;2023-04-06T03:47:23;8.50;99.90
18777;DHT22;9517;51.174;4.160;2023-04-06T03:49:51;8.50;99.90
18777;DHT22;9517;51.174;4.160;2023-04-06T03:52:18;8.60;99.90
18777;DHT22;9517;51.174;4.160;2023-04-06T03:54:45;8.50;99.90
18777;DHT22;9517;51.174;4.160;2023-04-06T03:57:14;8.50;99.90
18777;DHT22;9517;51.174;4.160;2023-04-06T03:59:41;8.50;99.90
18777;DHT22;9517;51.174;4.160;2023-04-06T04:02:08;8.40;99.90
18777;DHT22;9517;51.174;4.160;2023-04-06T04:04:35;8.30;99.90
18777;DHT22;9517;51.174;4.160;2023-04-06T04:07:02;8.40;99.90
18777;DHT22;9517;51.174;4.160;2023-04-06T04:09:30;8.50;99.90
18777;DHT22;9517;51.174;4.160;2023-04-06T04:11:57;8.40;99.90
18777;DHT22;9517;51.174;4.160;2023-04-06T04:14:25;8.50;99.90
18777;DHT22;9517;51.174;4.160;2023-04-06T04:16:52;8.40;99.90
18777;DHT22;9517;51.174;4.160;2023-04-06T04:19:19;8.40;99.90
18777;DHT22;9517;51.174;4.160;2023-04-06T04:21:47;8.50;99.90
18777;DHT22;9517;51.174;4.160;2023-04-06T04:24:14;8.40;99.90
18777;DHT22;9517;51.174;4.160;2023-04-06T04:26:41;8.20;99.90
18777;DHT22;9517;51.174;4.160;2023-04-06T04:29:08;8.30;99.90
18777;DHT22;9517;51.174;4.160;2023-04-06T04:31:37;8.20;99.90
18777;DHT22;9517;51.174;4.160;2023-04-06T04:34:04;8.20;99.90
18777;DHT22;9517;51.174;4.160;2023-04-06T04:36:32;8.10;99.90
18777;DHT22;9517;51.174;4.160;2023-04-06T04:38:59;8.00;99.90
18777;DHT22;9517;51.174;4.160;2023-04-06T04:41:27;8.10;99.90
18777;DHT22;9517;51.174;4.160;2023-04-06T04:43:54;8.10;99.90
18777;DHT22;9517;51.174;4.160;2023-04-06T04:46:21;8.20;99.90
18777;DHT22;9517;51.174;4.160;2023-04-06T04:48:50;8.20;99.90
18777;DHT22;9517;51.174;4.160;2023-04-06T04:51:17;8.30;99.90
18777;DHT22;9517;51.174;4.160;2023-04-06T04:53:45;8.20;99.90
18777;DHT22;9517;51.174;4.160;2023-04-06T04:56:12;8.30;99.90
18777;DHT22;9517;51.174;4.160;2023-04-06T04:58:39;8.30;99.90
18777;DHT22;9517;51.174;4.160;2023-04-06T05:01:06;8.30;99.90
18777;DHT22;9517;51.174;4.160;2023-04-06T05:03:33;8.20;99.90
18777;DHT22;9517;51.174;4.160;2023-04-06T05:06:03;8.30;99.90
18777;DHT22;9517;51.174;4.160;2023-04-06T05:08:30;8.40;99.90
18777;DHT22;9517;51.174;4.160;2023-04-06T05:10:57;8.60;99.90
18777;DHT22;9517;51.174;4.160;2023-04-06T05:13:24;8.60;99.90
18777;DHT22;9517;51.174;4.160;2023-04-06T05:15:52;8.60;99.90
18777;DHT22;9517;51.174;4.160;2023-04-06T05:18:19;8.50;99.90
18777;DHT22;9517;51.174;4.160;2023-04-06T05:20:47;8.30;99.90
18777;DHT22;9517;51.174;4.160;2023-04-06T05:23:16;8.40;99.90
18777;DHT22;9517;51.174;4.160;2023-04-06T05:25:44;8.40;99.90
18777;DHT22;9517;51.174;4.160;2023-04-06T05:28:11;8.50;99.90
18777;DHT22;9517;51.174;4.160;2023-04-06T05:30:39;8.30;99.90
18777;DHT22;9517;51.174;4.160;2023-04-06T05:33:07;8.30;99.90
18777;DHT22;9517;51.174;4.160;2023-04-06T05:35:34;8.40;99.90
18777;DHT22;9517;51.174;4.160;2023-04-06T05:38:01;8.50;99.90
18777;DHT22;9517;51.174;4.160;2023-04-06T05:40:30;8.40;99.90
18777;DHT22;9517;51.174;4.160;2023-04-06T05:42:57;8.40;99.90
18777;DHT22;9517;51.174;4.160;2023-04-06T05:45:24;8.40;99.90
18777;DHT22;9517;51.174;4.160;2023-04-06T05:47:52;8.30;99.90
18777;DHT22;9517;51.174;4.160;2023-04-06T05:50:19;8.20;99.90
18777;DHT22;9517;51.174;4.160;2023-04-06T05:52:46;8.20;99.90
18777;DHT22;9517;51.174;4.160;2023-04-06T05:55:13;8.10;99.90
18777;DHT22;9517;51.174;4.160;2023-04-06T05:57:42;8.10;99.90
18777;DHT22;9517;51.174;4.160;2023-04-06T06:00:10;8.10;99.90
18777;DHT22;9517;51.174;4.160;2023-04-06T06:02:38;8.10;99.90
18777;DHT22;9517;51.174;4.160;2023-04-06T06:05:08;8.10;99.90
18777;DHT22;9517;51.174;4.160;2023-04-06T06:07:35;8.10;99.90
18777;DHT22;9517;51.174;4.160;2023-04-06T06:10:03;8.10;99.90
18777;DHT22;9517;51.174;4.160;2023-04-06T06:12:30;8.10;99.90
18777;DHT22;9517;51.174;4.160;2023-04-06T06:14:58;8.10;99.90
18777;DHT22;9517;51.174;4.160;2023-04-06T06:17:26;8.00;99.90
18777;DHT22;9517;51.174;4.160;2023-04-06T06:19:53;8.00;99.90
18777;DHT22;9517;51.174;4.160;2023-04-06T06:22:20;8.00;99.90
18777;DHT22;9517;51.174;4.160;2023-04-06T06:24:47;8.00;99.90
18777;DHT22;9517;51.174;4.160;2023-04-06T06:27:15;8.10;99.90
18777;DHT22;9517;51.174;4.160;2023-04-06T06:29:42;8.20;99.90
18777;DHT22;9517;51.174;4.160;2023-04-06T06:32:11;8.00;99.90
18777;DHT22;9517;51.174;4.160;2023-04-06T06:34:38;7.90;99.90
18777;DHT22;9517;51.174;4.160;2023-04-06T06:37:05;7.80;99.90
18777;DHT22;9517;51.174;4.160;2023-04-06T06:39:33;7.90;99.90
18777;DHT22;9517;51.174;4.160;2023-04-06T06:42:00;8.10;99.90
18777;DHT22;9517;51.174;4.160;2023-04-06T06:44:27;8.00;99.90
18777;DHT22;9517;51.174;4.160;2023-04-06T06:46:54;8.00;99.90
18777;DHT22;9517;51.174;4.160;2023-04-06T06:49:23;7.80;99.90
18777;DHT22;9517;51.174;4.160;2023-04-06T06:51:50;7.70;99.90
18777;DHT22;9517;51.174;4.160;2023-04-06T06:54:17;7.70;99.90
18777;DHT22;9517;51.174;4.160;2023-04-06T06:56:45;7.80;99.90
18777;DHT22;9517;51.174;4.160;2023-04-06T06:59:12;7.90;99.90
18777;DHT22;9517;51.174;4.160;2023-04-06T07:01:39;8.00;99.90
18777;DHT22;9517;51.174;4.160;2023-04-06T07:04:06;8.00;99.90
18777;DHT22;9517;51.174;4.160;2023-04-06T07:06:36;8.30;99.90
18777;DHT22;9517;51.174;4.160;2023-04-06T07:09:04;8.30;99.90
18777;DHT22;9517;51.174;4.160;2023-04-06T07:11:31;8.30;99.90
18777;DHT22;9517;51.174;4.160;2023-04-06T07:13:58;8.30;99.90
18777;DHT22;9517;51.174;4.160;2023-04-06T07:16:25;8.40;99.90
18777;DHT22;9517;51.174;4.160;2023-04-06T07:18:52;8.50;99.90
18777;DHT22;9517;51.174;4.160;2023-04-06T07:21:20;8.50;99.90
18777;DHT22;9517;51.174;4.160;2023-04-06T07:23:48;8.50;99.90
18777;DHT22;9517;51.174;4.160;2023-04-06T07:26:16;8.60;99.90
18777;DHT22;9517;51.174;4.160;2023-04-06T07:28:43;8.50;99.90
18777;DHT22;9517;51.174;4.160;2023-04-06T07:31:10;8.60;99.90
18777;DHT22;9517;51.174;4.160;2023-04-06T07:33:38;8.80;99.90
18777;DHT22;9517;51.174;4.160;2023-04-06T07:36:05;8.90;99.90
18777;DHT22;9517;51.174;4.160;2023-04-06T07:38:32;9.00;99.90
18777;DHT22;9517;51.174;4.160;2023-04-06T07:41:01;9.10;99.90
18777;DHT22;9517;51.174;4.160;2023-04-06T07:43:30;9.10;99.90
18777;DHT22;9517;51.174;4.160;2023-04-06T07:45:58;9.30;99.90
18777;DHT22;9517;51.174;4.160;2023-04-06T07:48:26;9.30;99.90
18777;DHT22;9517;51.174;4.160;2023-04-06T07:51:00;9.40;99.90
18777;DHT22;9517;51.174;4.160;2023-04-06T07:53:28;9.30;99.90
18777;DHT22;9517;51.174;4.160;2023-04-06T07:55:55;9.20;99.90
18777;DHT22;9517;51.174;4.160;2023-04-06T07:58:24;9.30;99.90
18777;DHT22;9517;51.174;4.160;2023-04-06T08:00:51;9.20;99.90
18777;DHT22;9517;51.174;4.160;2023-04-06T08:03:20;9.10;99.90
18777;DHT22;9517;51.174;4.160;2023-04-06T08:05:51;9.10;99.90
18777;DHT22;9517;51.174;4.160;2023-04-06T08:08:19;9.20;99.90
18777;DHT22;9517;51.174;4.160;2023-04-06T08:10:47;9.20;99.90
18777;DHT22;9517;51.174;4.160;2023-04-06T08:13:14;9.20;99.90
18777;DHT22;9517;51.174;4.160;2023-04-06T08:15:43;9.10;99.90
18777;DHT22;9517;51.174;4.160;2023-04-06T08:18:10;9.10;99.90
18777;DHT22;9517;51.174;4.160;2023-04-06T08:20:37;9.00;99.90
18777;DHT22;9517;51.174;4.160;2023-04-06T08:23:05;8.90;99.90
18777;DHT22;9517;51.174;4.160;2023-04-06T08:25:35;9.00;99.90
18777;DHT22;9517;51.174;4.160;2023-04-06T08:28:02;8.80;99.90
18777;DHT22;9517;51.174;4.160;2023-04-06T08:30:30;8.80;99.90
18777;DHT22;9517;51.174;4.160;2023-04-06T08:32:58;8.80;99.90
18777;DHT22;9517;51.174;4.160;2023-04-06T08:35:26;8.80;99.90
18777;DHT22;9517;51.174;4.160;2023-04-06T08:37:54;8.90;99.90
18777;DHT22;9517;51.174;4.160;2023-04-06T08:40:21;8.80;99.90
18777;DHT22;9517;51.174;4.160;2023-04-06T08:42:52;8.60;99.90
18777;DHT22;9517;51.174;4.160;2023-04-06T08:45:19;8.80;99.90
18777;DHT22;9517;51.174;4.160;2023-04-06T08:47:47;8.90;99.90
18777;DHT22;9517;51.174;4.160;2023-04-06T08:50:17;9.00;99.90
18777;DHT22;9517;51.174;4.160;2023-04-06T08:52:47;9.00;99.90
18777;DHT22;9517;51.174;4.160;2023-04-06T08:55:15;9.00;99.90
18777;DHT22;9517;51.174;4.160;2023-04-06T08:57:42;9.10;99.90
18777;DHT22;9517;51.174;4.160;2023-04-06T09:00:11;9.10;99.90
18777;DHT22;9517;51.174;4.160;2023-04-06T09:02:39;9.20;99.90
18777;DHT22;9517;51.174;4.160;2023-04-06T09:05:08;9.20;99.90
18777;DHT22;9517;51.174;4.160;2023-04-06T09:07:37;9.20;99.90
18777;DHT22;9517;51.174;4.160;2023-04-06T09:10:05;9.20;99.90
18777;DHT22;9517;51.174;4.160;2023-04-06T09:12:33;9.10;99.90
18777;DHT22;9517;51.174;4.160;2023-04-06T09:15:01;9.00;99.90
18777;DHT22;9517;51.174;4.160;2023-04-06T09:17:30;8.90;99.90
18777;DHT22;9517;51.174;4.160;2023-04-06T09:19:59;9.00;99.90
18777;DHT22;9517;51.174;4.160;2023-04-06T09:22:36;9.10;99.90
18777;DHT22;9517;51.174;4.160;2023-04-06T09:25:05;9.20;99.90
18777;DHT22;9517;51.174;4.160;2023-04-06T09:27:34;9.20;99.90
18777;DHT22;9517;51.174;4.160;2023-04-06T09:30:06;9.10;99.90
18777;DHT22;9517;51.174;4.160;2023-04-06T09:32:45;9.20;99.90
18777;DHT22;9517;51.174;4.160;2023-04-06T09:35:13;9.20;99.90
18777;DHT22;9517;51.174;4.160;2023-04-06T09:37:42;9.30;99.90
18777;DHT22;9517;51.174;4.160;2023-04-06T09:40:09;9.20;99.90
18777;DHT22;9517;51.174;4.160;2023-04-06T09:42:37;9.30;99.90
18777;DHT22;9517;51.174;4.160;2023-04-06T09:45:05;9.20;99.90
18777;DHT22;9517;51.174;4.160;2023-04-06T09:47:33;9.20;99.90
18777;DHT22;9517;51.174;4.160;2023-04-06T09:50:03;9.30;99.90
18777;DHT22;9517;51.174;4.160;2023-04-06T09:52:32;9.30;99.90
18777;DHT22;9517;51.174;4.160;2023-04-06T09:55:02;9.30;99.90
18777;DHT22;9517;51.174;4.160;2023-04-06T09:57:35;9.40;99.90
18777;DHT22;9517;51.174;4.160;2023-04-06T10:00:05;9.30;99.90
18777;DHT22;9517;51.174;4.160;2023-04-06T10:02:41;9.30;99.90
18777;DHT22;9517;51.174;4.160;2023-04-06T10:05:17;9.40;99.90
18777;DHT22;9517;51.174;4.160;2023-04-06T10:07:47;9.40;99.90
18777;DHT22;9517;51.174;4.160;2023-04-06T10:10:18;9.40;99.90
18777;DHT22;9517;51.174;4.160;2023-04-06T10:12:47;9.30;99.90
18777;DHT22;9517;51.174;4.160;2023-04-06T10:15:15;9.00;99.90
18777;DHT22;9517;51.174;4.160;2023-04-06T10:17:43;9.10;99.90
18777;DHT22;9517;51.174;4.160;2023-04-06T10:20:16;9.20;99.90
18777;DHT22;9517;51.174;4.160;2023-04-06T10:22:53;9.30;99.90
18777;DHT22;9517;51.174;4.160;2023-04-06T10:25:30;9.30;99.90
18777;DHT22;9517;51.174;4.160;2023-04-06T10:28:01;9.40;99.90
18777;DHT22;9517;51.174;4.160;2023-04-06T10:30:28;9.40;99.90
18777;DHT22;9517;51.174;4.160;2023-04-06T10:32:56;9.40;99.90
18777;DHT22;9517;51.174;4.160;2023-04-06T10:35:23;9.20;99.90
18777;DHT22;9517;51.174;4.160;2023-04-06T10:37:52;9.30;99.90
18777;DHT22;9517;51.174;4.160;2023-04-06T10:40:22;9.30;99.90
18777;DHT22;9517;51.174;4.160;2023-04-06T10:42:51;9.30;99.90
18777;DHT22;9517;51.174;4.160;2023-04-06T10:45:20;9.20;99.90
18777;DHT22;9517;51.174;4.160;2023-04-06T10:47:47;9.20;99.90
18777;DHT22;9517;51.174;4.160;2023-04-06T10:50:16;9.30;99.90
18777;DHT22;9517;51.174;4.160;2023-04-06T10:52:44;9.30;99.90
18777;DHT22;9517;51.174;4.160;2023-04-06T10:55:13;9.30;99.90
18777;DHT22;9517;51.174;4.160;2023-04-06T10:57:41;9.40;99.90
18777;DHT22;9517;51.174;4.160;2023-04-06T11:00:12;9.40;99.90
18777;DHT22;9517;51.174;4.160;2023-04-06T11:02:39;9.50;99.90
18777;DHT22;9517;51.174;4.160;2023-04-06T11:05:07;9.50;99.90
18777;DHT22;9517;51.174;4.160;2023-04-06T11:07:35;9.60;99.90
18777;DHT22;9517;51.174;4.160;2023-04-06T11:10:02;9.40;99.90
18777;DHT22;9517;51.174;4.160;2023-04-06T11:12:30;9.60;99.90
18777;DHT22;9517;51.174;4.160;2023-04-06T11:14:58;9.60;99.90
18777;DHT22;9517;51.174;4.160;2023-04-06T11:17:32;9.70;99.90
18777;DHT22;9517;51.174;4.160;2023-04-06T11:19:59;9.70;99.90
18777;DHT22;9517;51.174;4.160;2023-04-06T11:22:27;9.80;99.90
18777;DHT22;9517;51.174;4.160;2023-04-06T11:25:04;9.60;99.90
18777;DHT22;9517;51.174;4.160;2023-04-06T11:27:34;9.60;99.90
18777;DHT22;9517;51.174;4.160;2023-04-06T11:30:03;9.40;99.90
18777;DHT22;9517;51.174;4.160;2023-04-06T11:32:40;9.40;99.90
18777;DHT22;9517;51.174;4.160;2023-04-06T11:35:11;9.40;99.90
18777;DHT22;9517;51.174;4.160;2023-04-06T11:37:38;9.50;99.90
18777;DHT22;9517;51.174;4.160;2023-04-06T11:40:08;9.60;99.90
18777;DHT22;9517;51.174;4.160;2023-04-06T11:42:36;9.60;99.90
18777;DHT22;9517;51.174;4.160;2023-04-06T11:45:04;9.60;99.90
18777;DHT22;9517;51.174;4.160;2023-04-06T11:47:36;9.60;99.90
18777;DHT22;9517;51.174;4.160;2023-04-06T11:50:08;9.70;99.90
18777;DHT22;9517;51.174;4.160;2023-04-06T11:52:36;9.60;99.90
18777;DHT22;9517;51.174;4.160;2023-04-06T11:55:11;9.50;99.90
18777;DHT22;9517;51.174;4.160;2023-04-06T11:57:39;9.60;99.90
18777;DHT22;9517;51.174;4.160;2023-04-06T12:00:07;9.70;99.90
18777;DHT22;9517;51.174;4.160;2023-04-06T12:02:37;9.60;99.90
18777;DHT22;9517;51.174;4.160;2023-04-06T12:05:06;9.90;99.90
18777;DHT22;9517;51.174;4.160;2023-04-06T12:07:34;9.80;99.90
18777;DHT22;9517;51.174;4.160;2023-04-06T12:10:03;9.90;99.90
18777;DHT22;9517;51.174;4.160;2023-04-06T12:12:30;9.80;99.90
18777;DHT22;9517;51.174;4.160;2023-04-06T12:14:58;9.60;99.90
18777;DHT22;9517;51.174;4.160;2023-04-06T12:17:25;9.70;99.90
18777;DHT22;9517;51.174;4.160;2023-04-06T12:19:54;9.60;99.90
18777;DHT22;9517;51.174;4.160;2023-04-06T12:22:21;9.40;99.90
18777;DHT22;9517;51.174;4.160;2023-04-06T12:24:48;9.40;99.90
18777;DHT22;9517;51.174;4.160;2023-04-06T12:27:15;9.40;99.90
18777;DHT22;9517;51.174;4.160;2023-04-06T12:29:42;9.50;99.90
18777;DHT22;9517;51.174;4.160;2023-04-06T12:32:10;9.50;99.90
18777;DHT22;9517;51.174;4.160;2023-04-06T12:34:38;9.40;99.90
18777;DHT22;9517;51.174;4.160;2023-04-06T12:37:06;9.50;99.90
18777;DHT22;9517;51.174;4.160;2023-04-06T12:39:33;9.50;99.90
18777;DHT22;9517;51.174;4.160;2023-04-06T12:42:01;9.50;99.90
18777;DHT22;9517;51.174;4.160;2023-04-06T12:44:30;9.70;99.90
18777;DHT22;9517;51.174;4.160;2023-04-06T12:46:57;9.60;99.90
18777;DHT22;9517;51.174;4.160;2023-04-06T12:49:24;9.50;99.90
18777;DHT22;9517;51.174;4.160;2023-04-06T12:51:53;9.40;99.90
18777;DHT22;9517;51.174;4.160;2023-04-06T12:54:22;9.20;99.90
18777;DHT22;9517;51.174;4.160;2023-04-06T12:56:52;9.30;99.90
18777;DHT22;9517;51.174;4.160;2023-04-06T12:59:21;9.30;99.90
18777;DHT22;9517;51.174;4.160;2023-04-06T13:01:50;9.30;99.90
18777;DHT22;9517;51.174;4.160;2023-04-06T13:04:18;9.40;99.90
18777;DHT22;9517;51.174;4.160;2023-04-06T13:06:45;9.50;99.90
18777;DHT22;9517;51.174;4.160;2023-04-06T13:09:12;9.50;99.90
18777;DHT22;9517;51.174;4.160;2023-04-06T13:11:41;9.50;99.90
18777;DHT22;9517;51.174;4.160;2023-04-06T13:14:08;9.60;99.90
18777;DHT22;9517;51.174;4.160;2023-04-06T13:16:36;9.50;99.90
18777;DHT22;9517;51.174;4.160;2023-04-06T13:19:03;9.60;99.90
18777;DHT22;9517;51.174;4.160;2023-04-06T13:21:31;9.60;99.90
18777;DHT22;9517;51.174;4.160;2023-04-06T13:23:58;9.60;99.90
18777;DHT22;9517;51.174;4.160;2023-04-06T13:26:25;9.60;99.90
18777;DHT22;9517;51.174;4.160;2023-04-06T13:28:54;9.50;99.90
18777;DHT22;9517;51.174;4.160;2023-04-06T13:31:22;9.60;99.90
18777;DHT22;9517;51.174;4.160;2023-04-06T13:33:49;9.60;99.90
18777;DHT22;9517;51.174;4.160;2023-04-06T13:36:16;9.80;99.90
18777;DHT22;9517;51.174;4.160;2023-04-06T13:38:43;9.70;99.90
18777;DHT22;9517;51.174;4.160;2023-04-06T13:41:17;9.60;99.90
18777;DHT22;9517;51.174;4.160;2023-04-06T13:43:46;9.60;99.90
18777;DHT22;9517;51.174;4.160;2023-04-06T13:46:15;9.70;99.90
18777;DHT22;9517;51.174;4.160;2023-04-06T13:48:42;9.80;99.90
18777;DHT22;9517;51.174;4.160;2023-04-06T13:51:09;9.90;99.90
18777;DHT22;9517;51.174;4.160;2023-04-06T13:53:37;9.80;99.90
18777;DHT22;9517;51.174;4.160;2023-04-06T13:56:04;9.80;99.90
18777;DHT22;9517;51.174;4.160;2023-04-06T13:58:31;10.00;99.90
18777;DHT22;9517;51.174;4.160;2023-04-06T14:01:02;10.00;99.90
18777;DHT22;9517;51.174;4.160;2023-04-06T14:03:31;10.10;99.90
18777;DHT22;9517;51.174;4.160;2023-04-06T14:05:58;10.10;99.90
18777;DHT22;9517;51.174;4.160;2023-04-06T14:08:25;10.10;99.90
18777;DHT22;9517;51.174;4.160;2023-04-06T14:10:52;10.10;99.90
18777;DHT22;9517;51.174;4.160;2023-04-06T14:13:20;10.00;99.90
18777;DHT22;9517;51.174;4.160;2023-04-06T14:15:53;9.90;99.90
18777;DHT22;9517;51.174;4.160;2023-04-06T14:18:20;9.70;99.90
18777;DHT22;9517;51.174;4.160;2023-04-06T14:20:55;9.80;99.90
18777;DHT22;9517;51.174;4.160;2023-04-06T14:23:23;9.90;99.90
18777;DHT22;9517;51.174;4.160;2023-04-06T14:25:51;10.00;99.90
18777;DHT22;9517;51.174;4.160;2023-04-06T14:28:20;10.10;99.90
18777;DHT22;9517;51.174;4.160;2023-04-06T14:30:47;10.10;99.90
18777;DHT22;9517;51.174;4.160;2023-04-06T14:33:14;10.20;99.90
18777;DHT22;9517;51.174;4.160;2023-04-06T14:35:42;10.30;99.90
18777;DHT22;9517;51.174;4.160;2023-04-06T14:38:10;10.30;99.90
18777;DHT22;9517;51.174;4.160;2023-04-06T14:40:37;10.40;99.90
18777;DHT22;9517;51.174;4.160;2023-04-06T14:43:05;10.40;99.90
18777;DHT22;9517;51.174;4.160;2023-04-06T14:45:33;10.40;99.90
18777;DHT22;9517;51.174;4.160;2023-04-06T14:48:02;10.50;99.90
18777;DHT22;9517;51.174;4.160;2023-04-06T14:50:31;10.50;99.90
18777;DHT22;9517;51.174;4.160;2023-04-06T14:52:58;10.40;99.90
18777;DHT22;9517;51.174;4.160;2023-04-06T14:55:27;10.40;99.90
18777;DHT22;9517;51.174;4.160;2023-04-06T14:57:54;10.40;99.90
18777;DHT22;9517;51.174;4.160;2023-04-06T15:00:22;10.20;99.90
18777;DHT22;9517;51.174;4.160;2023-04-06T15:02:49;10.20;99.90
18777;DHT22;9517;51.174;4.160;2023-04-06T15:05:16;10.40;99.90
18777;DHT22;9517;51.174;4.160;2023-04-06T15:07:43;10.40;99.90
18777;DHT22;9517;51.174;4.160;2023-04-06T15:10:10;10.30;99.90
18777;DHT22;9517;51.174;4.160;2023-04-06T15:12:39;10.40;99.90
18777;DHT22;9517;51.174;4.160;2023-04-06T15:15:06;10.20;99.90
18777;DHT22;9517;51.174;4.160;2023-04-06T15:17:34;10.40;99.90
18777;DHT22;9517;51.174;4.160;2023-04-06T15:20:01;10.60;99.90
18777;DHT22;9517;51.174;4.160;2023-04-06T15:22:28;10.80;99.90
18777;DHT22;9517;51.174;4.160;2023-04-06T15:24:55;10.80;99.90
18777;DHT22;9517;51.174;4.160;2023-04-06T15:27:23;10.60;99.90
18777;DHT22;9517;51.174;4.160;2023-04-06T15:29:52;10.70;99.90
18777;DHT22;9517;51.174;4.160;2023-04-06T15:32:19;10.60;99.90
18777;DHT22;9517;51.174;4.160;2023-04-06T15:34:47;10.60;99.90
18777;DHT22;9517;51.174;4.160;2023-04-06T15:37:14;10.80;99.90
18777;DHT22;9517;51.174;4.160;2023-04-06T15:39:41;10.70;99.90
18777;DHT22;9517;51.174;4.160;2023-04-06T15:42:08;10.80;99.90
18777;DHT22;9517;51.174;4.160;2023-04-06T15:44:35;10.70;99.90
18777;DHT22;9517;51.174;4.160;2023-04-06T15:47:04;10.60;99.90
18777;DHT22;9517;51.174;4.160;2023-04-06T15:49:31;10.60;99.90
18777;DHT22;9517;51.174;4.160;2023-04-06T15:51:58;10.50;99.90
18777;DHT22;9517;51.174;4.160;2023-04-06T15:54:25;10.50;99.90
18777;DHT22;9517;51.174;4.160;2023-04-06T15:56:52;10.50;99.90
18777;DHT22;9517;51.174;4.160;2023-04-06T15:59:21;10.60;99.90
18777;DHT22;9517;51.174;4.160;2023-04-06T16:01:48;10.70;99.90
18777;DHT22;9517;51.174;4.160;2023-04-06T16:04:16;10.70;99.90